Time;durP1;ratioP1;P1;durP2;ratioP2;P2;SDS_P1;SDS_P2;PMS_P1;PMS_P2;Temp;Humidity;BMP_temperature;BMP_pressure;BME280_temperature;BME280_humidity;BME280_pressure;Samples;Min_cycle;Max_cycle;Signal;HPM_P1;HPM_P2
2021/09/23 00:01:15;;;;;;;10.32;7.97;;;;;;;10.99;68.74;94664.92;827396;71;31814;-77
2021/09/23 00:16:08;;;;;;;9.35;7.97;;;;;;;11.01;68.97;94669.36;828332;71;28796;-78
2021/09/23 00:31:09;;;;;;;6.95;5.72;;;;;;;11.04;69.19;94657.49;834936;71;29264;-76
2021/09/23 00:46:14;;;;;;;7.40;6.70;;;;;;;11.09;69.55;94661.37;827549;71;31712;-76
2021/09/23 01:01:15;;;;;;;5.62;5.10;;;;;;;11.10;69.78;94642.45;828627;71;31736;-78
2021/09/23 01:16:14;;;;;;;5.08;4.67;;;;;;;11.10;69.93;94644.53;829483;71;29237;-76
2021/09/23 01:31:14;;;;;;;5.08;4.67;;;;;;;11.15;70.14;94649.72;828007;71;31662;-78
2021/09/23 01:46:12;;;;;;;3.90;3.60;;;;;;;11.15;70.38;94650.23;828503;71;30924;-76
2021/09/23 02:01:14;;;;;;;4.00;3.70;;;;;;;11.17;70.42;94641.02;827465;71;32071;-76
2021/09/23 02:16:15;;;;;;;4.53;4.12;;;;;;;11.07;70.55;94616.23;829199;71;31684;-78
2021/09/23 02:31:10;;;;;;;4.05;3.75;;;;;;;11.17;70.58;94648.90;834037;71;29712;-77
2021/09/23 02:46:15;;;;;;;3.70;3.40;;;;;;;11.14;71.02;94646.06;827369;71;33192;-79
2021/09/23 03:16:08;;;;;;;3.75;3.47;;;;;;;11.12;70.91;94645.02;835358;71;29715;-83
2021/09/23 03:31:14;;;;;;;4.55;4.15;;;;;;;11.14;71.14;94652.08;827945;71;32754;-80
2021/09/23 03:46:16;;;;;;;5.72;5.15;;;;;;;11.12;71.25;94637.69;828532;71;33271;-79
2021/09/23 04:01:14;;;;;;;5.58;5.08;;;;;;;11.30;71.21;94652.63;827315;71;32919;-78
2021/09/23 04:16:16;;;;;;;5.50;4.95;;;;;;;11.27;71.17;94666.31;800447;74;33371;-79
2021/09/23 04:31:15;;;;;;;6.67;5.92;;;;;;;11.24;71.13;94680.04;833656;71;32697;-77
2021/09/23 06:01:29;;;;;;;;;;;;;;;;;;;;;
2021/09/23 09:16:28;;;;;;;6.00;5.50;;;;;;;21.42;37.43;94801.75;827467;71;32637;-78
2021/09/23 11:01:41;;;;;;;4.90;4.50;;;;;;;24.83;30.21;94764.48;803424;71;31927;-81
2021/09/23 11:46:15;;;;;;;4.60;4.20;;;;;;;23.78;30.99;94739.92;833896;71;31724;-78
2021/09/23 17:46:14;;;;;;;7.87;6.78;;;;;;;13.80;48.95;94742.66;821902;71;31877;-76
2021/09/23 18:16:15;;;;;;;7.55;6.78;;;;;;;13.39;49.94;94783.16;833830;71;32346;-80
2021/09/23 19:32:00;;;;;;;6.80;6.12;;;;;;;12.55;51.13;94846.97;791959;72;33024;-81
2021/09/23 19:46:14;;;;;;;8.68;7.70;;;;;;;12.39;51.46;94835.92;827899;71;31673;-86
2021/09/23 20:16:14;;;;;;;6.72;6.00;;;;;;;12.06;52.74;94850.93;828305;71;33002;-83
2021/09/23 20:31:08;;;;;;;6.90;6.25;;;;;;;11.90;52.45;94845.16;828124;71;29571;-79
2021/09/23 20:46:08;;;;;;;7.92;7.17;;;;;;;11.54;52.08;94808.08;827934;71;29526;-81
2021/09/23 21:16:10;;;;;;;8.33;7.40;;;;;;;11.78;52.60;94833.73;833989;71;30040;-79
2021/09/23 21:31:33;;;;;;;8.23;7.47;;;;;;;11.72;53.20;94830.12;834793;71;33490;-82
2021/09/23 21:46:23;;;;;;;8.85;7.75;;;;;;;11.67;53.21;94807.34;828334;71;32789;-79
2021/09/23 22:01:08;;;;;;;8.38;6.90;;;;;;;11.62;53.28;94772.72;828328;71;30105;-81
2021/09/23 22:16:12;;;;;;;6.90;6.22;;;;;;;11.46;54.34;94767.45;827974;71;32008;-81
2021/09/23 22:31:14;;;;;;;7.28;6.58;;;;;;;11.30;55.04;94749.05;834135;71;32692;-81
2021/09/23 22:46:09;;;;;;;6.75;6.05;;;;;;;11.27;55.29;94754.85;827927;71;30264;-81
2021/09/23 23:01:20;;;;;;;6.42;5.83;;;;;;;11.17;55.58;94733.45;827978;71;32833;-80
2021/09/23 23:16:14;;;;;;;6.45;5.83;;;;;;;11.28;55.73;94726.22;829042;71;32744;-79
2021/09/23 23:31:08;;;;;;;6.92;6.22;;;;;;;11.32;55.56;94721.95;793816;74;29823;-81
2021/09/23 23:46:09;;;;;;;8.03;7.22;;;;;;;11.02;57.19;94723.41;828185;71;29506;-82
